GB-0517 weather

Public forecast

Using degrees Celsius for public forecast. Weather courtesy of forecast.io.

Closest aviation weather report (METAR) to Glebe Farm Airstrip

Closest report is MoD Boscombe Down Airport, 10.9 nm (20.2 km) E. Retrieved 2020/08/12 22:50 UTC (52 minutes ago):

EGDM 122250Z AUTO 34008KT 9999 FEW140/// 21/17 Q1012

Closest aviation forecast (TAF) to Glebe Farm Airstrip

Forecast is more than 12 hours old.

Closest forecast is MoD Boscombe Down Airport, 10.9 nm (20.2 km) E. Retrieved 2020-02-22 00:45 UTC (6 months ago):

TAF TAF EGDM 212241Z 2200/2212 23018G28KT 9999 BKN020 BECMG 2201/2204 BKN010 TEMPO 2202/2206 24028G38KT PROB30 TEMPO 2202/2210 3000 -RADZ BKN006 BECMG 2209/2211 SCT025 TEMPO 2211/2212 SCT015